Time;durP1;ratioP1;P1;durP2;ratioP2;P2;SDS_P1;SDS_P2;PMS_P1;PMS_P2;Temp;Humidity;BMP_temperature;BMP_pressure;BME280_temperature;BME280_humidity;BME280_pressure;Samples;Min_cycle;Max_cycle;Signal;HPM_P1;HPM_P2
2022/04/28 00:00:46;;;;;;;9.00;4.43;;;8.00;99.90;;;;;;5015477;28;20179;-41
2022/04/28 00:03:12;;;;;;;9.93;4.90;;;8.00;99.90;;;;;;5015170;28;20188;-41
2022/04/28 00:05:38;;;;;;;8.57;5.10;;;7.90;99.90;;;;;;5015067;28;20580;-39
2022/04/28 00:08:05;;;;;;;7.80;4.87;;;7.90;99.90;;;;;;5014889;28;20202;-42
2022/04/28 00:10:30;;;;;;;6.67;5.07;;;7.80;99.90;;;;;;5015248;28;20182;-39
2022/04/28 00:12:57;;;;;;;13.80;4.23;;;7.80;99.90;;;;;;5014884;28;20539;-39
2022/04/28 00:15:23;;;;;;;7.33;5.10;;;7.80;99.90;;;;;;5014948;28;20654;-40
2022/04/28 00:17:48;;;;;;;7.63;4.77;;;7.70;99.90;;;;;;5014753;28;20194;-39
2022/04/28 00:20:14;;;;;;;10.13;5.10;;;7.70;99.90;;;;;;5014744;28;20178;-40
2022/04/28 00:22:40;;;;;;;8.57;5.30;;;7.70;99.90;;;;;;5014683;28;20256;-38
2022/04/28 00:25:06;;;;;;;7.87;5.70;;;7.60;99.90;;;;;;5014620;28;20216;-41
2022/04/28 00:27:33;;;;;;;8.93;5.93;;;7.60;99.90;;;;;;5014850;28;20204;-40
2022/04/28 00:29:58;;;;;;;11.30;6.60;;;7.50;99.90;;;;;;5014835;28;20181;-40
2022/04/28 00:32:24;;;;;;;10.53;6.90;;;7.50;99.90;;;;;;5014750;28;20178;-38
2022/04/28 00:34:50;;;;;;;12.93;7.70;;;7.50;99.90;;;;;;5014789;28;20673;-42
2022/04/28 00:37:15;;;;;;;12.20;7.60;;;7.40;99.90;;;;;;5014498;28;20550;-42
2022/04/28 00:39:41;;;;;;;15.83;9.87;;;7.40;99.90;;;;;;5014412;28;20189;-42
2022/04/28 00:42:11;;;;;;;16.37;10.43;;;7.40;99.90;;;;;;5015006;28;20174;-39
2022/04/28 00:44:37;;;;;;;20.33;11.57;;;7.40;99.90;;;;;;5014755;28;20182;-41
2022/04/28 00:47:04;;;;;;;22.03;13.23;;;7.40;99.90;;;;;;5014347;28;20197;-39
2022/04/28 00:52:13;;;;;;;22.77;14.10;;;7.30;99.90;;;;;;5014888;28;20176;-39
2022/04/28 00:54:39;;;;;;;20.13;13.33;;;7.30;99.90;;;;;;5014395;28;20201;-38
2022/04/28 00:57:05;;;;;;;20.37;11.50;;;7.20;99.90;;;;;;5014213;28;20204;-39
2022/04/28 00:59:30;;;;;;;20.93;13.50;;;7.20;99.90;;;;;;5014115;28;20180;-39
2022/04/28 01:01:56;;;;;;;23.30;13.77;;;7.10;99.90;;;;;;5014699;28;20162;-39
2022/04/28 01:04:22;;;;;;;19.53;12.43;;;7.10;99.90;;;;;;5014320;28;20181;-38
2022/04/28 01:06:48;;;;;;;16.83;12.00;;;7.10;99.90;;;;;;5013991;28;20204;-40
2022/04/28 01:09:14;;;;;;;20.23;11.43;;;7.00;99.90;;;;;;5014258;28;20178;-41
2022/04/28 01:11:41;;;;;;;16.70;10.93;;;7.00;99.90;;;;;;5013956;28;20184;-39
2022/04/28 01:14:06;;;;;;;15.23;10.80;;;7.00;99.90;;;;;;5014109;28;20251;-41
2022/04/28 01:16:32;;;;;;;17.63;10.77;;;6.90;99.90;;;;;;5013854;28;20206;-38
2022/04/28 01:18:59;;;;;;;15.20;10.50;;;6.90;99.90;;;;;;5014017;28;20521;-37
2022/04/28 01:21:25;;;;;;;13.70;9.73;;;6.90;99.90;;;;;;5013841;28;20228;-39
2022/04/28 01:23:51;;;;;;;16.80;10.33;;;6.90;99.90;;;;;;5014008;28;20199;-40
2022/04/28 01:26:18;;;;;;;14.90;9.40;;;6.80;99.90;;;;;;5013922;28;20548;-37
2022/04/28 01:28:43;;;;;;;12.70;9.20;;;6.80;99.90;;;;;;5013656;28;20192;-38
2022/04/28 01:31:09;;;;;;;12.30;8.53;;;6.80;99.90;;;;;;5013626;28;20208;-42
2022/04/28 01:33:34;;;;;;;12.00;8.83;;;6.80;99.90;;;;;;5013558;28;20208;-40
2022/04/28 01:36:00;;;;;;;13.60;8.87;;;6.80;99.90;;;;;;5013753;28;20260;-40
2022/04/28 01:38:26;;;;;;;12.67;9.10;;;6.70;99.90;;;;;;5013490;28;20200;-38
2022/04/28 01:40:52;;;;;;;14.50;8.10;;;6.70;99.90;;;;;;5013567;28;20695;-37
2022/04/28 01:43:17;;;;;;;15.37;8.03;;;6.70;99.90;;;;;;5013755;28;20189;-39
2022/04/28 01:45:43;;;;;;;13.37;8.53;;;6.70;99.90;;;;;;5014166;28;20186;-44
2022/04/28 01:48:09;;;;;;;13.57;7.70;;;6.70;99.90;;;;;;5016695;28;20284;-42
2022/04/28 01:50:35;;;;;;;11.57;7.93;;;6.60;99.90;;;;;;5017545;28;20193;-45
2022/04/28 01:55:45;;;;;;;11.63;7.67;;;6.60;99.90;;;;;;5020715;28;20165;-43
2022/04/28 01:58:10;;;;;;;13.00;7.43;;;6.50;99.90;;;;;;5020866;28;20198;-45
2022/04/28 02:00:36;;;;;;;12.93;8.10;;;6.50;99.90;;;;;;5021142;28;20613;-45
2022/04/28 02:03:01;;;;;;;14.13;7.70;;;6.40;99.90;;;;;;5021641;28;20226;-44
2022/04/28 02:05:27;;;;;;;14.07;7.80;;;6.50;99.90;;;;;;5020977;28;20618;-45
2022/04/28 02:07:53;;;;;;;10.47;7.37;;;6.40;99.90;;;;;;5020756;28;20197;-43
2022/04/28 02:10:18;;;;;;;12.27;7.27;;;6.40;99.90;;;;;;5020671;28;20182;-44
2022/04/28 02:12:44;;;;;;;12.03;6.70;;;6.40;99.90;;;;;;5020974;28;20561;-45
2022/04/28 02:15:10;;;;;;;14.50;7.43;;;6.40;99.90;;;;;;5020633;28;20763;-46
2022/04/28 02:17:38;;;;;;;12.27;7.80;;;6.40;99.90;;;;;;5021384;28;20196;-45
2022/04/28 02:20:06;;;;;;;12.47;6.63;;;6.30;99.90;;;;;;5020300;28;20272;-44
2022/04/28 02:22:32;;;;;;;11.90;6.90;;;6.30;99.90;;;;;;5020677;28;20216;-43
2022/04/28 02:24:57;;;;;;;16.27;7.27;;;6.40;99.90;;;;;;5020094;28;20188;-44
2022/04/28 02:27:24;;;;;;;10.30;7.27;;;6.30;99.90;;;;;;5019941;28;20255;-44
2022/04/28 02:29:50;;;;;;;13.10;8.13;;;6.30;99.90;;;;;;5019807;28;20195;-43
2022/04/28 02:32:16;;;;;;;12.80;7.50;;;6.40;99.90;;;;;;5020040;28;20300;-44
2022/04/28 02:34:42;;;;;;;11.63;7.53;;;6.40;99.90;;;;;;5020176;28;20661;-45
2022/04/28 02:37:07;;;;;;;15.00;8.47;;;6.30;99.90;;;;;;5019802;28;20267;-44
2022/04/28 02:39:33;;;;;;;14.97;7.07;;;6.40;99.90;;;;;;5019518;28;20258;-45
2022/04/28 02:41:59;;;;;;;13.40;7.30;;;6.40;99.90;;;;;;5020013;28;20183;-45
2022/04/28 02:44:24;;;;;;;9.73;6.30;;;6.40;99.90;;;;;;5020089;28;20189;-45
2022/04/28 02:46:50;;;;;;;12.70;7.73;;;6.40;99.90;;;;;;5019399;28;20282;-46
2022/04/28 02:49:16;;;;;;;11.73;6.47;;;6.30;99.90;;;;;;5019719;28;20189;-44
2022/04/28 02:51:42;;;;;;;16.40;7.70;;;6.30;99.90;;;;;;5019171;28;20185;-45
2022/04/28 02:54:09;;;;;;;11.73;6.37;;;6.30;99.90;;;;;;5019465;28;20210;-45
2022/04/28 02:56:35;;;;;;;9.83;6.87;;;6.30;99.90;;;;;;5019482;28;20545;-45
2022/04/28 02:59:00;;;;;;;13.27;6.90;;;6.30;99.90;;;;;;5018158;28;20184;-46
2022/04/28 03:01:26;;;;;;;11.83;6.97;;;6.30;99.90;;;;;;5020804;28;20267;-46
2022/04/28 03:03:53;;;;;;;16.27;7.83;;;6.20;99.90;;;;;;5020140;28;20206;-43
2022/04/28 03:11:49;;;;;;;10.10;6.53;;;6.20;99.90;;;;;;5020370;28;20309;-44
2022/04/28 03:14:15;;;;;;;11.50;6.93;;;6.20;99.90;;;;;;5020378;28;20248;-43
2022/04/28 03:16:41;;;;;;;11.93;7.47;;;6.20;99.90;;;;;;5021039;28;20227;-45
2022/04/28 03:19:07;;;;;;;11.77;6.70;;;6.20;99.90;;;;;;5020070;28;20195;-44
2022/04/28 03:21:33;;;;;;;10.80;6.73;;;6.10;99.90;;;;;;5019873;28;20235;-44
2022/04/28 03:23:59;;;;;;;15.30;7.33;;;6.10;99.90;;;;;;5020529;28;20541;-43
2022/04/28 03:26:25;;;;;;;14.57;7.23;;;6.10;99.90;;;;;;5020601;28;20261;-46
2022/04/28 03:28:50;;;;;;;11.50;7.23;;;6.10;99.90;;;;;;5019634;28;20183;-45
2022/04/28 03:31:16;;;;;;;14.47;7.90;;;6.00;99.90;;;;;;5020101;28;20183;-45
2022/04/28 03:33:42;;;;;;;11.73;7.07;;;6.00;99.90;;;;;;5019783;28;20207;-45
2022/04/28 03:36:50;;;;;;;12.10;7.53;;;6.00;99.90;;;;;;5019961;28;20227;-45
2022/04/28 03:38:53;;;;;;;11.37;6.77;;;6.00;99.90;;;;;;5019596;28;20215;-44
2022/04/28 03:41:19;;;;;;;11.93;7.33;;;6.00;99.90;;;;;;5019687;28;20203;-46
2022/04/28 03:43:45;;;;;;;11.40;7.37;;;6.00;99.90;;;;;;5018468;28;20639;-45
2022/04/28 03:46:11;;;;;;;17.53;7.67;;;5.90;99.90;;;;;;5019848;28;20179;-45
2022/04/28 03:48:37;;;;;;;13.60;7.33;;;5.90;99.90;;;;;;5018934;28;20215;-43
2022/04/28 03:51:03;;;;;;;13.90;7.97;;;5.90;99.90;;;;;;5019458;28;20194;-44
2022/04/28 03:53:30;;;;;;;14.97;8.07;;;5.90;99.90;;;;;;5018610;28;20604;-45
2022/04/28 03:55:57;;;;;;;16.97;7.87;;;5.90;99.90;;;;;;5019197;28;20171;-45
2022/04/28 03:58:25;;;;;;;16.57;8.07;;;5.90;99.90;;;;;;5019581;28;20197;-46
2022/04/28 04:00:51;;;;;;;15.33;8.83;;;5.80;99.90;;;;;;5019483;28;20191;-45
2022/04/28 04:03:18;;;;;;;13.57;8.00;;;5.90;99.90;;;;;;5018572;28;20183;-46
2022/04/28 04:05:43;;;;;;;15.20;8.77;;;5.80;99.90;;;;;;5018165;28;20189;-45
2022/04/28 04:08:09;;;;;;;11.67;6.97;;;5.80;99.90;;;;;;5019652;28;20199;-45
2022/04/28 04:10:34;;;;;;;11.73;8.10;;;5.80;99.90;;;;;;5018872;28;20205;-44
2022/04/28 04:13:00;;;;;;;14.63;8.20;;;5.80;99.90;;;;;;5019032;28;20179;-45
2022/04/28 04:15:25;;;;;;;12.40;8.80;;;5.70;99.90;;;;;;5019459;28;20655;-44
2022/04/28 04:17:52;;;;;;;15.43;8.20;;;5.70;99.90;;;;;;5018833;28;20205;-46
2022/04/28 04:20:18;;;;;;;13.13;8.33;;;5.70;99.90;;;;;;5017769;28;20263;-43
2022/04/28 04:22:44;;;;;;;14.20;8.27;;;5.80;99.90;;;;;;5018779;28;20252;-45
2022/04/28 04:25:10;;;;;;;10.20;7.43;;;5.70;99.90;;;;;;5019189;28;20554;-45
2022/04/28 04:27:36;;;;;;;13.43;9.00;;;5.70;99.90;;;;;;5019692;28;20205;-43
2022/04/28 04:32:17;;;;;;;16.13;8.27;;;5.70;99.90;;;;;;5019601;28;20194;-45
2022/04/28 04:32:48;;;;;;;16.97;8.07;;;5.70;99.90;;;;;;5019253;28;20605;-46
2022/04/28 04:35:16;;;;;;;13.10;7.90;;;5.70;99.90;;;;;;5018404;28;20248;-46
2022/04/28 04:37:41;;;;;;;14.10;7.90;;;5.60;99.90;;;;;;5016484;28;20217;-45
2022/04/28 04:40:09;;;;;;;14.40;7.90;;;5.70;99.90;;;;;;5017925;28;20194;-46
2022/04/28 04:42:34;;;;;;;14.13;7.57;;;5.70;99.90;;;;;;5017498;28;20203;-46
2022/04/28 04:45:00;;;;;;;14.33;8.60;;;5.70;99.90;;;;;;5017221;28;20192;-45
2022/04/28 04:47:26;;;;;;;12.93;8.27;;;5.70;99.90;;;;;;5017332;28;20205;-44
2022/04/28 04:49:51;;;;;;;15.10;8.57;;;5.70;99.90;;;;;;5017504;28;20190;-44
2022/04/28 04:52:17;;;;;;;16.53;8.50;;;5.70;99.90;;;;;;5018299;28;20577;-44
2022/04/28 04:54:42;;;;;;;14.37;8.13;;;5.70;99.90;;;;;;5016978;28;20223;-44
2022/04/28 04:57:08;;;;;;;12.20;8.60;;;5.70;99.90;;;;;;5016436;28;20202;-47
2022/04/28 04:59:33;;;;;;;14.20;8.30;;;5.70;99.90;;;;;;5015570;28;20181;-46
2022/04/28 05:01:59;;;;;;;15.17;8.63;;;5.70;99.90;;;;;;5016296;28;20229;-44
2022/04/28 05:04:24;;;;;;;16.53;9.77;;;5.70;99.90;;;;;;5015677;28;20223;-46
2022/04/28 05:06:50;;;;;;;12.77;8.37;;;5.70;99.90;;;;;;5017194;28;20206;-46
2022/04/28 05:09:16;;;;;;;19.33;9.77;;;5.70;99.90;;;;;;5017224;28;20647;-45
2022/04/28 05:11:42;;;;;;;20.23;9.37;;;5.80;99.90;;;;;;5017181;28;20181;-43
2022/04/28 05:14:07;;;;;;;13.73;8.80;;;5.80;99.90;;;;;;5016842;28;20702;-43
2022/04/28 05:16:34;;;;;;;13.83;8.77;;;5.90;99.90;;;;;;5019636;28;20221;-43
2022/04/28 05:19:00;;;;;;;13.20;9.10;;;5.90;99.90;;;;;;5020283;28;20183;-43
2022/04/28 05:21:27;;;;;;;17.33;9.63;;;6.00;99.90;;;;;;5019281;28;20184;-45
2022/04/28 05:23:53;;;;;;;16.33;8.77;;;5.90;99.90;;;;;;5017936;28;20575;-46
2022/04/28 05:26:19;;;;;;;14.60;9.60;;;6.00;99.90;;;;;;5018255;28;20206;-45
2022/04/28 05:28:45;;;;;;;14.50;9.70;;;6.10;99.90;;;;;;5017729;28;20570;-43
2022/04/28 05:31:11;;;;;;;17.87;9.90;;;6.10;99.90;;;;;;5018678;28;20211;-45
2022/04/28 05:33:41;;;;;;;18.67;9.77;;;6.10;99.90;;;;;;5015339;28;20218;-41
2022/04/28 05:36:09;;;;;;;16.47;9.90;;;6.20;99.90;;;;;;5013286;28;20183;-41
2022/04/28 05:38:36;;;;;;;14.83;9.23;;;6.20;99.90;;;;;;5020485;28;20219;-43
2022/04/28 05:41:03;;;;;;;16.70;9.93;;;6.30;99.90;;;;;;5014310;28;20179;-44
2022/04/28 05:46:15;;;;;;;15.37;9.83;;;6.50;99.90;;;;;;5014161;28;20181;-42
2022/04/28 05:48:41;;;;;;;18.23;9.97;;;6.50;99.90;;;;;;5014238;28;20187;-46
2022/04/28 05:51:07;;;;;;;15.63;9.70;;;6.60;99.90;;;;;;5012364;28;20204;-43
2022/04/28 05:53:33;;;;;;;17.43;10.40;;;6.70;99.90;;;;;;5013456;28;20289;-43
2022/04/28 05:55:58;;;;;;;14.87;10.07;;;6.80;99.90;;;;;;5013428;28;20618;-46
2022/04/28 05:58:25;;;;;;;17.53;10.90;;;6.90;99.90;;;;;;5013783;28;20662;-43
2022/04/28 06:00:51;;;;;;;17.53;10.77;;;6.90;99.90;;;;;;5013685;28;20602;-43
2022/04/28 06:03:17;;;;;;;15.83;10.33;;;7.00;99.90;;;;;;5013640;28;20263;-45
2022/04/28 06:05:43;;;;;;;15.70;10.30;;;7.10;99.90;;;;;;5014156;28;20671;-43
2022/04/28 06:08:09;;;;;;;19.50;10.47;;;7.20;99.90;;;;;;5013558;28;20203;-43
2022/04/28 06:10:35;;;;;;;17.10;10.60;;;7.20;99.90;;;;;;5015380;28;20729;-43
2022/04/28 06:13:01;;;;;;;16.50;10.27;;;7.30;99.90;;;;;;5017851;28;20192;-44
2022/04/28 06:15:28;;;;;;;18.87;10.20;;;7.40;99.90;;;;;;5017751;28;20219;-46
2022/04/28 06:17:54;;;;;;;14.93;9.93;;;7.50;99.90;;;;;;5013058;28;20208;-43
2022/04/28 06:20:20;;;;;;;17.13;10.10;;;7.60;99.90;;;;;;5013172;28;20188;-44
2022/04/28 06:22:46;;;;;;;15.83;10.90;;;7.70;99.90;;;;;;5013076;28;20254;-43
2022/04/28 06:25:13;;;;;;;15.73;9.50;;;7.80;99.90;;;;;;5013836;28;20224;-43
2022/04/28 06:27:38;;;;;;;16.97;10.33;;;8.00;99.90;;;;;;5015888;28;20749;-46
2022/04/28 06:30:06;;;;;;;18.13;10.80;;;8.00;99.90;;;;;;5016026;28;20177;-44
2022/04/28 06:32:32;;;;;;;14.07;10.27;;;8.10;99.90;;;;;;5017010;28;20181;-45
2022/04/28 06:34:58;;;;;;;17.33;10.97;;;8.10;99.90;;;;;;5016347;28;20207;-44
2022/04/28 06:37:24;;;;;;;18.07;9.97;;;8.20;99.90;;;;;;5014226;28;20198;-40
2022/04/28 06:39:50;;;;;;;16.40;10.40;;;8.30;99.90;;;;;;5014320;28;20631;-37
2022/04/28 06:42:16;;;;;;;15.33;10.47;;;8.40;99.90;;;;;;5017801;28;20174;-41
2022/04/28 06:44:41;;;;;;;20.47;11.07;;;8.50;99.90;;;;;;5016643;28;20277;-38
2022/04/28 06:47:07;;;;;;;17.67;9.53;;;8.60;99.90;;;;;;5017115;28;20244;-39
2022/04/28 06:49:33;;;;;;;15.00;9.23;;;8.70;99.90;;;;;;5015457;28;20772;-41
2022/04/28 06:51:59;;;;;;;15.60;10.30;;;8.80;99.90;;;;;;5016555;28;20178;-40
2022/04/28 06:54:25;;;;;;;19.43;11.57;;;8.90;99.90;;;;;;5016663;28;20202;-42
2022/04/28 06:56:50;;;;;;;18.53;10.97;;;9.10;99.90;;;;;;5015136;28;20197;-40
2022/04/28 06:59:16;;;;;;;19.17;11.37;;;9.10;99.90;;;;;;5016610;28;20178;-39
2022/04/28 07:01:43;;;;;;;19.83;10.40;;;9.30;99.90;;;;;;5014981;28;20577;-41
2022/04/28 07:04:08;;;;;;;17.43;10.33;;;9.40;99.90;;;;;;5016252;28;20177;-41
2022/04/28 07:06:34;;;;;;;17.07;10.57;;;9.40;99.90;;;;;;5016435;28;20194;-40
2022/04/28 07:08:59;;;;;;;16.03;11.27;;;9.60;99.90;;;;;;5016334;28;20171;-38
2022/04/28 07:11:25;;;;;;;23.77;11.43;;;9.60;99.90;;;;;;5016221;28;20214;-41
2022/04/28 07:13:51;;;;;;;19.87;10.93;;;9.80;99.90;;;;;;5016348;28;20237;-41
2022/04/28 07:16:16;;;;;;;17.03;10.30;;;9.90;99.90;;;;;;5015999;28;20261;-41
2022/04/28 07:18:42;;;;;;;21.77;12.30;;;10.10;99.90;;;;;;5016264;28;20176;-41
2022/04/28 07:21:08;;;;;;;15.10;9.90;;;10.20;99.90;;;;;;5016042;28;20172;-41
2022/04/28 07:23:33;;;;;;;17.43;11.30;;;10.30;99.90;;;;;;5015987;28;20187;-41
2022/04/28 07:25:59;;;;;;;16.77;10.70;;;10.40;99.90;;;;;;5015932;28;20168;-41
2022/04/28 07:28:24;;;;;;;19.57;11.07;;;10.40;99.90;;;;;;5015910;28;20191;-38
2022/04/28 07:30:50;;;;;;;16.50;11.80;;;10.40;99.90;;;;;;5015792;28;20680;-42
2022/04/28 07:33:16;;;;;;;16.90;10.63;;;10.50;99.90;;;;;;5015896;28;20201;-41
2022/04/28 07:35:41;;;;;;;20.20;11.57;;;10.40;99.90;;;;;;5017968;28;20669;-46
2022/04/28 07:38:08;;;;;;;14.60;10.73;;;10.50;99.90;;;;;;5019454;28;20197;-45
2022/04/28 07:40:35;;;;;;;17.60;11.27;;;10.60;99.90;;;;;;5019913;28;20244;-46
2022/04/28 07:43:00;;;;;;;15.80;10.53;;;10.70;99.90;;;;;;5019848;28;20182;-43
2022/04/28 07:45:26;;;;;;;13.90;10.40;;;10.80;99.90;;;;;;5019021;28;20232;-47
2022/04/28 07:47:52;;;;;;;14.10;10.27;;;10.90;99.90;;;;;;5018622;28;20205;-46
2022/04/28 07:50:18;;;;;;;18.00;10.03;;;11.00;99.90;;;;;;5018763;28;20304;-47
2022/04/28 07:52:44;;;;;;;16.07;10.53;;;11.10;99.90;;;;;;5017979;28;20181;-45
2022/04/28 07:55:10;;;;;;;14.07;10.10;;;11.20;99.90;;;;;;5017863;28;20568;-45
2022/04/28 07:57:37;;;;;;;17.73;10.50;;;11.30;99.90;;;;;;5017388;28;20201;-46
2022/04/28 08:00:07;;;;;;;18.83;10.83;;;11.50;99.90;;;;;;5017496;28;20256;-46
2022/04/28 08:02:36;;;;;;;14.27;10.23;;;11.60;99.90;;;;;;5016695;28;20187;-47
2022/04/28 08:05:02;;;;;;;17.27;10.90;;;11.70;99.90;;;;;;5017173;28;20216;-47
2022/04/28 08:07:28;;;;;;;14.00;9.57;;;11.70;99.90;;;;;;5017257;28;20689;-46
2022/04/28 08:09:54;;;;;;;13.00;9.67;;;11.80;99.90;;;;;;5017244;28;20188;-47
2022/04/28 08:12:19;;;;;;;15.03;10.37;;;11.90;99.90;;;;;;5017095;28;20188;-47
2022/04/28 08:14:45;;;;;;;14.43;10.03;;;12.10;99.90;;;;;;5017973;28;20669;-48
2022/04/28 08:17:11;;;;;;;19.03;11.07;;;12.30;99.90;;;;;;5017257;28;20198;-47
2022/04/28 08:19:36;;;;;;;18.93;10.60;;;12.40;99.90;;;;;;5017635;28;20181;-45
2022/04/28 08:22:02;;;;;;;15.50;9.97;;;12.50;99.90;;;;;;5017387;28;20189;-46
2022/04/28 08:24:28;;;;;;;14.53;9.70;;;12.50;99.90;;;;;;5016877;28;20256;-46
2022/04/28 08:26:54;;;;;;;14.83;10.90;;;12.50;99.90;;;;;;5014975;28;20285;-46
2022/04/28 08:29:24;;;;;;;13.20;9.30;;;12.60;99.90;;;;;;5016537;28;20209;-47
2022/04/28 08:31:49;;;;;;;17.77;10.50;;;12.80;99.90;;;;;;5016071;28;20650;-45
2022/04/28 08:34:17;;;;;;;16.20;10.87;;;13.00;99.90;;;;;;5015088;28;20232;-42
2022/04/28 08:36:44;;;;;;;18.97;10.80;;;13.10;99.90;;;;;;5014862;28;20264;-41
2022/04/28 08:39:10;;;;;;;12.67;9.80;;;13.20;99.90;;;;;;5014548;28;20680;-42
2022/04/28 08:41:42;;;;;;;18.13;11.07;;;13.30;99.90;;;;;;5014584;28;20224;-41
2022/04/28 08:44:24;;;;;;;18.43;10.97;;;13.30;99.90;;;;;;5014955;28;20184;-39
2022/04/28 08:46:52;;;;;;;16.80;11.00;;;13.40;99.90;;;;;;5014415;28;20201;-39
2022/04/28 08:49:29;;;;;;;15.37;10.10;;;13.40;99.90;;;;;;5014327;28;20216;-40
2022/04/28 08:51:57;;;;;;;16.30;10.67;;;13.60;99.90;;;;;;5016929;28;20161;-47
2022/04/28 08:54:25;;;;;;;17.37;11.23;;;13.70;99.90;;;;;;5017063;28;20259;-47
2022/04/28 08:56:53;;;;;;;15.23;10.73;;;13.60;99.90;;;;;;5017474;28;20201;-46
2022/04/28 08:59:19;;;;;;;14.97;10.83;;;13.70;99.90;;;;;;5017833;28;20177;-47
2022/04/28 09:01:45;;;;;;;16.77;10.23;;;13.80;99.90;;;;;;5017858;28;20177;-46
2022/04/28 09:04:11;;;;;;;17.80;10.70;;;13.80;99.90;;;;;;5017768;28;20205;-46
2022/04/28 09:06:40;;;;;;;13.83;9.90;;;13.90;99.90;;;;;;5018249;28;20205;-47
2022/04/28 09:09:11;;;;;;;13.17;10.93;;;14.10;99.90;;;;;;5017916;28;20182;-46
2022/04/28 09:11:37;;;;;;;13.10;10.37;;;14.30;99.90;;;;;;5017426;28;20201;-48
2022/04/28 09:14:11;;;;;;;17.50;10.53;;;14.40;99.90;;;;;;5017284;28;20324;-47
2022/04/28 09:16:43;;;;;;;17.17;10.77;;;14.30;99.90;;;;;;5017668;28;20251;-46
2022/04/28 09:19:11;;;;;;;16.50;10.73;;;14.40;99.90;;;;;;5017077;28;20212;-48
2022/04/28 09:21:37;;;;;;;18.30;10.03;;;14.50;99.90;;;;;;5017209;28;20186;-46
2022/04/28 09:24:04;;;;;;;15.13;10.27;;;14.50;99.90;;;;;;5016447;28;20658;-46
2022/04/28 09:26:32;;;;;;;17.60;10.77;;;14.60;99.90;;;;;;5016453;28;20243;-46
2022/04/28 09:29:02;;;;;;;15.03;11.27;;;14.60;99.90;;;;;;5016631;28;20371;-44
2022/04/28 09:31:37;;;;;;;13.80;10.50;;;14.60;99.90;;;;;;5016001;28;20177;-39
2022/04/28 09:34:10;;;;;;;16.00;10.83;;;14.60;99.90;;;;;;5012451;28;20213;-39
2022/04/28 09:36:37;;;;;;;16.03;10.37;;;14.70;99.90;;;;;;5013861;28;20213;-42
2022/04/28 09:39:07;;;;;;;15.17;10.27;;;14.80;99.90;;;;;;5013501;28;20208;-40
2022/04/28 09:44:22;;;;;;;13.07;9.40;;;15.00;99.90;;;;;;5014132;28;20176;-44
2022/04/28 09:46:50;;;;;;;13.33;10.40;;;15.10;99.90;;;;;;5013510;28;20255;-42
2022/04/28 09:49:21;;;;;;;14.97;9.80;;;15.20;99.90;;;;;;5013522;28;20260;-43
2022/04/28 09:51:46;;;;;;;15.50;10.40;;;15.30;99.90;;;;;;5013809;28;20181;-43
2022/04/28 09:54:15;;;;;;;16.27;10.83;;;15.30;99.90;;;;;;5013594;28;20572;-42
2022/04/28 09:56:42;;;;;;;14.20;9.47;;;15.40;99.90;;;;;;5013680;28;20284;-41
2022/04/28 09:59:10;;;;;;;17.60;9.70;;;15.40;99.90;;;;;;5013705;28;20182;-43
2022/04/28 10:01:37;;;;;;;12.83;9.57;;;15.40;99.90;;;;;;5012184;28;20181;-42
2022/04/28 10:04:04;;;;;;;13.17;9.57;;;15.50;99.90;;;;;;5013766;28;20190;-44
2022/04/28 10:06:34;;;;;;;12.83;9.53;;;15.60;99.90;;;;;;5013387;28;20205;-44
2022/04/28 10:09:03;;;;;;;12.50;9.50;;;15.50;99.90;;;;;;5013711;28;20186;-42
2022/04/28 10:11:29;;;;;;;14.10;9.60;;;15.60;99.90;;;;;;5013702;28;20280;-40
2022/04/28 10:13:55;;;;;;;14.73;9.60;;;15.70;99.90;;;;;;5013166;28;20296;-40
2022/04/28 10:16:24;;;;;;;15.10;8.97;;;15.70;99.90;;;;;;5016808;28;20255;-40
2022/04/28 10:19:05;;;;;;;13.73;9.13;;;15.70;99.90;;;;;;5015869;28;20630;-42
2022/04/28 10:21:53;;;;;;;12.03;9.20;;;15.80;99.90;;;;;;5017497;28;20237;-40
2022/04/28 10:32:58;;;;;;;13.40;10.00;;;15.80;99.90;;;;;;5017227;28;20546;-39
2022/04/28 10:35:44;;;;;;;13.60;9.13;;;16.00;99.90;;;;;;5017069;28;20209;-41
2022/04/28 10:38:30;;;;;;;10.53;8.90;;;15.90;99.90;;;;;;5016930;28;20208;-41
2022/04/28 10:41:26;;;;;;;11.90;9.37;;;15.90;99.90;;;;;;5016789;28;20166;-43
2022/04/28 10:43:52;;;;;;;11.90;9.07;;;16.00;99.90;;;;;;5017540;28;20517;-46
2022/04/28 10:46:28;;;;;;;11.47;8.60;;;16.10;99.90;;;;;;5016554;28;20181;-49
2022/04/28 10:49:02;;;;;;;14.87;9.17;;;16.30;99.90;;;;;;5016626;28;20565;-47
2022/04/28 10:51:31;;;;;;;12.67;9.93;;;16.30;99.90;;;;;;5017117;28;20582;-47
2022/04/28 10:54:02;;;;;;;10.17;8.50;;;16.20;99.90;;;;;;5016697;28;20577;-49
2022/04/28 10:56:31;;;;;;;10.53;9.00;;;16.20;99.90;;;;;;5016425;28;20197;-46
2022/04/28 10:59:02;;;;;;;10.43;8.27;;;16.30;99.90;;;;;;5016647;28;20178;-46
2022/04/28 11:01:33;;;;;;;10.23;8.73;;;16.30;99.90;;;;;;5016445;28;20524;-48
2022/04/28 11:04:01;;;;;;;12.23;9.60;;;16.40;99.90;;;;;;5016555;28;20173;-46
2022/04/28 11:06:33;;;;;;;12.23;8.63;;;16.50;99.90;;;;;;5016533;28;20206;-49
2022/04/28 11:09:00;;;;;;;12.23;9.07;;;16.60;99.90;;;;;;5016493;28;20185;-46
2022/04/28 11:11:41;;;;;;;10.33;8.80;;;16.70;99.90;;;;;;5016187;28;20228;-46
2022/04/28 11:14:08;;;;;;;11.77;8.87;;;16.80;99.90;;;;;;5016940;28;20232;-47
2022/04/28 11:16:34;;;;;;;11.50;8.87;;;16.80;99.90;;;;;;5014856;28;20604;-49
2022/04/28 11:18:59;;;;;;;11.83;8.30;;;16.80;99.90;;;;;;5016255;28;20265;-47
2022/04/28 11:21:25;;;;;;;13.03;8.67;;;16.80;99.90;;;;;;5016290;28;20186;-46
2022/04/28 11:23:51;;;;;;;12.43;8.40;;;16.90;99.90;;;;;;5015981;28;20209;-46
2022/04/28 11:26:19;;;;;;;12.83;8.63;;;16.90;99.90;;;;;;5015039;28;20606;-47
2022/04/28 11:28:45;;;;;;;10.40;8.37;;;16.80;99.90;;;;;;5016687;28;20185;-46
2022/04/28 11:31:13;;;;;;;9.60;8.10;;;16.80;99.90;;;;;;5016137;28;20698;-47
2022/04/28 11:33:42;;;;;;;13.17;8.57;;;16.70;99.90;;;;;;5015689;28;20197;-47
2022/04/28 11:36:15;;;;;;;10.17;8.70;;;16.70;99.90;;;;;;5015845;28;20180;-47
2022/04/28 11:38:51;;;;;;;11.77;8.13;;;16.80;99.90;;;;;;5015785;28;20201;-45
2022/04/28 11:41:26;;;;;;;9.00;8.07;;;17.00;99.90;;;;;;5016182;28;20172;-46
2022/04/28 11:43:52;;;;;;;12.80;8.30;;;17.00;99.90;;;;;;5015914;28;20160;-40
2022/04/28 11:46:18;;;;;;;8.77;7.70;;;17.00;99.90;;;;;;5015718;28;20264;-41
2022/04/28 11:48:44;;;;;;;11.07;8.30;;;17.00;99.90;;;;;;5015483;28;20714;-39
2022/04/28 11:51:09;;;;;;;10.37;8.10;;;17.00;99.90;;;;;;5015865;28;20552;-41
2022/04/28 11:53:42;;;;;;;13.33;8.60;;;16.90;99.90;;;;;;5015356;28;20186;-47
2022/04/28 11:56:23;;;;;;;11.97;8.97;;;16.90;99.90;;;;;;5015628;28;20181;-48
2022/04/28 11:58:51;;;;;;;12.93;8.30;;;17.10;99.90;;;;;;5015276;28;20178;-46
2022/04/28 12:01:20;;;;;;;12.70;9.10;;;17.10;99.90;;;;;;5014019;28;20177;-46
2022/04/28 12:03:56;;;;;;;13.47;9.70;;;17.30;99.90;;;;;;5015520;28;20194;-45
2022/04/28 12:06:23;;;;;;;10.83;8.50;;;17.30;99.90;;;;;;5015384;28;20300;-48
2022/04/28 12:08:57;;;;;;;13.30;8.80;;;17.30;99.90;;;;;;5015417;28;20588;-47
2022/04/28 12:14:24;;;;;;;15.57;9.47;;;17.20;99.90;;;;;;5015489;28;20208;-48
2022/04/28 12:19:55;;;;;;;13.27;8.53;;;17.20;99.90;;;;;;5015359;28;20169;-46
2022/04/28 12:22:31;;;;;;;11.07;8.07;;;17.20;99.90;;;;;;5014982;28;20249;-46
2022/04/28 12:25:08;;;;;;;12.00;8.90;;;17.40;99.90;;;;;;5015075;28;20257;-46
2022/04/28 12:27:51;;;;;;;9.80;8.23;;;17.50;99.90;;;;;;5014994;28;20205;-48
2022/04/28 12:30:18;;;;;;;10.43;8.13;;;17.50;99.90;;;;;;5014868;28;20178;-48
2022/04/28 12:32:50;;;;;;;13.80;9.37;;;17.60;99.90;;;;;;5014929;28;20189;-46
2022/04/28 12:35:25;;;;;;;12.63;8.10;;;17.70;99.90;;;;;;5014845;28;20210;-47
2022/04/28 12:37:55;;;;;;;10.63;8.37;;;17.70;99.90;;;;;;5014249;28;20189;-46
2022/04/28 12:40:21;;;;;;;13.80;8.73;;;17.50;99.90;;;;;;5014781;28;20181;-45
2022/04/28 12:42:48;;;;;;;11.87;7.57;;;17.60;99.90;;;;;;5015070;28;20177;-47
2022/04/28 12:45:16;;;;;;;9.77;8.40;;;17.80;99.90;;;;;;5014921;28;20192;-48
2022/04/28 12:47:44;;;;;;;12.63;8.67;;;17.90;99.90;;;;;;5013434;28;20255;-49
2022/04/28 12:50:20;;;;;;;12.30;8.37;;;17.90;99.90;;;;;;5015087;28;20178;-47
2022/04/28 12:52:46;;;;;;;9.57;8.17;;;18.10;99.90;;;;;;5014439;28;20235;-47
2022/04/28 12:55:13;;;;;;;10.33;8.20;;;18.00;99.90;;;;;;5014336;28;20209;-49
2022/04/28 12:57:39;;;;;;;11.50;8.17;;;18.10;99.90;;;;;;5014462;28;20206;-47
2022/04/28 13:00:09;;;;;;;15.07;8.53;;;18.20;99.90;;;;;;5014432;28;20181;-48
2022/04/28 13:02:35;;;;;;;10.87;7.67;;;18.20;99.90;;;;;;5014494;28;20521;-47
2022/04/28 13:05:18;;;;;;;9.33;8.07;;;18.20;99.90;;;;;;5014590;28;20170;-48
2022/04/28 13:07:44;;;;;;;12.20;7.33;;;18.10;99.90;;;;;;5014375;28;20564;-48
2022/04/28 13:10:13;;;;;;;10.23;7.13;;;18.10;99.90;;;;;;5014321;28;20186;-47
2022/04/28 13:12:39;;;;;;;11.23;7.87;;;18.10;99.90;;;;;;5014012;28;20276;-48